Time;durP1;ratioP1;P1;durP2;ratioP2;P2;SDS_P1;SDS_P2;PMS_P1;PMS_P2;Temp;Humidity;BMP_temperature;BMP_pressure;BME280_temperature;BME280_humidity;BME280_pressure;Samples;Min_cycle;Max_cycle;Signal;HPM_P1;HPM_P2
2024/01/24 00:00:30;;;;;;;21.52;2.97;;;11.50;99.90;;;;;;5041556;28;20041;-80
2024/01/24 00:02:56;;;;;;;22.52;2.60;;;11.80;99.90;;;;;;5024157;28;20053;-81
2024/01/24 00:05:22;;;;;;;9.95;2.22;;;11.50;99.90;;;;;;5023336;28;20423;-81
2024/01/24 00:07:47;;;;;;;19.35;3.28;;;11.30;99.90;;;;;;5025644;28;20064;-80
2024/01/24 00:10:13;;;;;;;12.10;2.63;;;12.00;99.90;;;;;;5042367;28;20076;-81
2024/01/24 00:12:38;;;;;;;15.57;2.88;;;10.90;99.90;;;;;;5021782;28;20137;-81
2024/01/24 00:15:05;;;;;;;13.93;2.65;;;10.90;99.90;;;;;;5014879;28;20099;-80
2024/01/24 00:17:30;;;;;;;20.00;2.92;;;11.00;99.90;;;;;;5037263;28;20641;-81
2024/01/24 00:19:56;;;;;;;16.02;2.90;;;11.50;99.90;;;;;;5024607;28;20128;-83
2024/01/24 00:22:22;;;;;;;23.40;3.55;;;10.90;99.90;;;;;;5030288;28;20060;-81
2024/01/24 00:24:47;;;;;;;18.60;3.25;;;10.90;99.90;;;;;;5039030;28;20037;-81
2024/01/24 00:27:13;;;;;;;13.48;3.83;;;10.90;99.90;;;;;;5041327;28;20582;-82
2024/01/24 00:29:40;;;;;;;27.48;3.53;;;10.90;99.90;;;;;;5041957;28;20388;-82
2024/01/24 00:32:05;;;;;;;18.27;3.42;;;11.20;99.90;;;;;;5038609;28;20041;-83
2024/01/24 00:34:31;;;;;;;13.02;2.90;;;10.90;99.90;;;;;;5037258;28;20060;-82
2024/01/24 00:36:57;;;;;;;20.15;4.22;;;11.30;99.90;;;;;;5022408;28;20057;-82
2024/01/24 00:39:22;;;;;;;17.80;3.17;;;11.80;99.90;;;;;;5021007;28;20099;-82
2024/01/24 00:41:48;;;;;;;17.83;2.53;;;10.90;99.90;;;;;;5038726;28;20042;-82
2024/01/24 00:44:14;;;;;;;16.13;2.45;;;10.90;99.90;;;;;;5041076;28;20045;-82
2024/01/24 00:46:40;;;;;;;19.90;3.65;;;11.90;99.90;;;;;;5023164;28;20128;-81
2024/01/24 00:49:10;;;;;;;21.15;3.25;;;11.20;99.90;;;;;;5022745;28;20059;-81
2024/01/24 00:51:36;;;;;;;19.85;2.72;;;10.90;99.90;;;;;;5020588;28;20129;-81
2024/01/24 00:54:03;;;;;;;15.55;2.58;;;11.50;99.90;;;;;;5019496;28;20056;-82
2024/01/24 00:56:29;;;;;;;26.55;3.55;;;11.60;99.90;;;;;;5038500;28;20041;-82
2024/01/24 00:58:54;;;;;;;16.58;3.13;;;11.50;99.90;;;;;;5038816;28;20049;-83
2024/01/24 01:01:20;;;;;;;26.15;3.75;;;11.20;99.90;;;;;;5021802;28;20389;-81
2024/01/24 01:03:46;;;;;;;15.95;3.03;;;11.90;99.90;;;;;;5034830;28;20125;-82
2024/01/24 01:06:11;;;;;;;15.32;3.00;;;10.90;99.90;;;;;;5038703;28;20099;-82
2024/01/24 01:08:37;;;;;;;11.95;2.05;;;11.10;99.90;;;;;;5022660;28;20091;-81
2024/01/24 01:11:05;;;;;;;16.13;2.28;;;11.40;99.90;;;;;;5023918;28;20057;-81
2024/01/24 01:13:33;;;;;;;20.55;2.83;;;10.90;99.90;;;;;;5040527;28;20047;-81
2024/01/24 01:15:58;;;;;;;16.55;2.47;;;11.30;99.90;;;;;;5043816;28;20049;-83
2024/01/24 01:18:24;;;;;;;23.63;2.42;;;10.90;99.90;;;;;;5037752;28;20052;-81
2024/01/24 01:20:50;;;;;;;20.65;3.15;;;11.80;99.90;;;;;;5026985;28;20505;-81
2024/01/24 01:23:16;;;;;;;17.33;2.72;;;10.90;99.90;;;;;;5045879;28;20045;-79
2024/01/24 01:25:41;;;;;;;15.48;2.17;;;11.80;99.90;;;;;;5026542;28;20052;-81
2024/01/24 01:28:07;;;;;;;22.27;2.67;;;11.60;99.90;;;;;;5024412;28;20041;-80
2024/01/24 01:30:32;;;;;;;14.13;1.77;;;11.90;99.90;;;;;;5024338;28;20076;-82
2024/01/24 01:32:58;;;;;;;11.73;1.75;;;11.50;99.90;;;;;;5043944;28;20049;-81
2024/01/24 01:35:24;;;;;;;11.63;2.40;;;11.60;99.90;;;;;;5044921;28;20084;-82
2024/01/24 01:37:49;;;;;;;23.05;3.47;;;11.20;99.90;;;;;;5044856;28;20048;-81
2024/01/24 01:40:15;;;;;;;12.02;2.30;;;12.00;99.90;;;;;;5007252;28;20480;-81
2024/01/24 01:42:44;;;;;;;11.15;1.63;;;11.70;99.90;;;;;;5042089;28;20048;-81
2024/01/24 01:45:11;;;;;;;9.98;1.70;;;11.30;99.90;;;;;;5041585;28;20092;-81
2024/01/24 01:47:37;;;;;;;11.45;1.67;;;11.60;99.90;;;;;;5041487;28;20588;-81
2024/01/24 01:50:09;;;;;;;14.18;2.45;;;12.00;99.90;;;;;;5023859;28;20076;-82
2024/01/24 01:52:36;;;;;;;13.48;2.60;;;11.30;99.90;;;;;;5044881;28;20045;-81
2024/01/24 01:55:04;;;;;;;10.98;2.15;;;11.30;99.90;;;;;;5044937;28;20052;-81
2024/01/24 01:57:31;;;;;;;10.95;2.08;;;11.30;99.90;;;;;;5041231;28;20045;-83
2024/01/24 01:59:56;;;;;;;9.38;1.50;;;12.10;99.90;;;;;;5041574;28;20037;-81
2024/01/24 02:02:22;;;;;;;10.73;1.70;;;11.50;99.90;;;;;;5042668;28;20575;-82
2024/01/24 02:04:48;;;;;;;11.70;1.92;;;11.90;99.90;;;;;;5026731;28;20036;-82
2024/01/24 02:07:15;;;;;;;10.43;1.48;;;12.20;99.90;;;;;;5044685;28;20493;-81
2024/01/24 02:09:41;;;;;;;7.85;1.42;;;11.60;99.90;;;;;;5023743;28;20072;-81
2024/01/24 02:12:07;;;;;;;11.23;2.13;;;12.00;99.90;;;;;;5022852;28;20045;-82
2024/01/24 02:14:33;;;;;;;11.27;1.90;;;11.40;99.90;;;;;;5024398;28;20124;-81
2024/01/24 02:16:58;;;;;;;9.48;1.70;;;11.50;99.90;;;;;;5043439;28;20393;-81
2024/01/24 02:19:25;;;;;;;11.63;1.77;;;12.20;99.90;;;;;;5023456;28;20456;-81
2024/01/24 02:21:51;;;;;;;16.73;2.47;;;12.10;99.90;;;;;;5025956;28;20080;-81
2024/01/24 02:24:17;;;;;;;10.63;1.77;;;11.80;99.90;;;;;;5044170;28;20492;-82
2024/01/24 02:26:43;;;;;;;11.95;2.10;;;11.40;99.90;;;;;;5024832;28;20118;-82
2024/01/24 02:29:09;;;;;;;8.68;1.85;;;11.40;99.90;;;;;;5040464;28;20461;-81
2024/01/24 02:31:34;;;;;;;10.00;1.90;;;11.40;99.90;;;;;;5041287;28;20042;-80
2024/01/24 02:34:00;;;;;;;9.10;1.48;;;11.50;99.90;;;;;;5014924;28;20383;-81
2024/01/24 02:36:26;;;;;;;13.48;1.60;;;12.30;99.90;;;;;;4995406;28;20133;-81
2024/01/24 02:38:51;;;;;;;16.40;1.80;;;11.40;99.90;;;;;;5009887;28;20041;-82
2024/01/24 02:41:19;;;;;;;9.93;1.42;;;12.20;99.90;;;;;;4994959;28;20038;-80
2024/01/24 02:43:44;;;;;;;10.93;1.75;;;11.40;99.90;;;;;;4991994;28;20056;-81
2024/01/24 02:46:10;;;;;;;13.93;1.88;;;12.10;99.90;;;;;;5011161;28;20041;-82
2024/01/24 02:48:36;;;;;;;11.30;1.92;;;11.90;99.90;;;;;;4994964;28;20125;-82
2024/01/24 02:51:01;;;;;;;10.07;1.80;;;11.90;99.90;;;;;;5012616;28;20117;-81
2024/01/24 02:53:27;;;;;;;14.50;2.63;;;11.40;99.90;;;;;;5004135;28;20126;-81
2024/01/24 02:55:52;;;;;;;13.43;2.17;;;11.40;99.90;;;;;;4994648;28;20397;-84
2024/01/24 02:58:18;;;;;;;10.10;1.75;;;11.40;99.90;;;;;;4978079;28;20096;-82
2024/01/24 03:00:44;;;;;;;14.05;2.30;;;11.40;99.90;;;;;;4994281;28;20046;-84
2024/01/24 03:03:09;;;;;;;12.50;2.03;;;12.10;99.90;;;;;;4994267;28;20065;-83
2024/01/24 03:05:35;;;;;;;13.05;1.88;;;11.40;99.90;;;;;;4993643;28;20066;-80
2024/01/24 03:08:02;;;;;;;19.83;2.40;;;11.40;99.90;;;;;;5007714;28;20046;-83
2024/01/24 03:10:28;;;;;;;20.27;3.13;;;11.30;99.90;;;;;;5011837;28;20057;-82
2024/01/24 03:12:54;;;;;;;14.73;2.30;;;11.30;99.90;;;;;;5012307;28;20038;-83
2024/01/24 03:15:20;;;;;;;16.38;2.33;;;11.40;99.90;;;;;;5011674;28;20045;-81
2024/01/24 03:17:46;;;;;;;17.65;2.15;;;11.20;99.90;;;;;;4994088;28;20112;-82
2024/01/24 03:20:13;;;;;;;10.80;2.33;;;11.50;99.90;;;;;;5011728;28;20042;-83
2024/01/24 03:22:39;;;;;;;14.95;2.63;;;11.20;99.90;;;;;;4994397;28;20050;-83
2024/01/24 03:25:06;;;;;;;17.83;3.38;;;11.20;99.90;;;;;;5011728;28;20053;-83
2024/01/24 03:27:32;;;;;;;17.25;2.92;;;11.10;99.90;;;;;;4994290;28;20077;-82
2024/01/24 03:29:58;;;;;;;14.65;3.28;;;11.60;99.90;;;;;;4978059;28;20449;-83
2024/01/24 03:32:24;;;;;;;15.25;3.17;;;11.50;99.90;;;;;;4999574;28;20097;-82
2024/01/24 03:34:54;;;;;;;25.58;3.33;;;11.50;99.90;;;;;;5011299;28;20049;-84
2024/01/24 03:37:20;;;;;;;21.17;3.92;;;11.50;99.90;;;;;;4987869;28;20131;-83
2024/01/24 03:39:46;;;;;;;19.20;2.85;;;11.00;99.90;;;;;;5011738;28;20100;-82
2024/01/24 03:42:12;;;;;;;14.68;2.58;;;11.50;99.90;;;;;;4993838;28;20057;-81
2024/01/24 03:44:37;;;;;;;18.40;2.97;;;11.00;99.90;;;;;;5008600;28;20052;-80
2024/01/24 03:47:03;;;;;;;15.80;2.47;;;10.90;99.90;;;;;;4992324;28;20103;-83
2024/01/24 03:49:29;;;;;;;21.98;4.15;;;11.00;99.90;;;;;;4992275;28;20054;-83
2024/01/24 03:51:55;;;;;;;20.88;3.20;;;11.00;99.90;;;;;;4992225;28;20509;-82
2024/01/24 03:54:22;;;;;;;17.02;4.15;;;10.90;99.90;;;;;;5009808;28;20042;-81
2024/01/24 03:56:48;;;;;;;26.23;3.60;;;10.90;99.90;;;;;;4992518;28;20641;-84
2024/01/24 03:59:13;;;;;;;17.42;3.42;;;11.80;99.90;;;;;;5009820;28;20045;-82
2024/01/24 04:01:39;;;;;;;21.10;3.53;;;10.90;99.90;;;;;;4988310;28;20046;-84
2024/01/24 04:04:05;;;;;;;16.13;2.95;;;10.90;99.90;;;;;;5010340;28;20046;-83
2024/01/24 04:06:31;;;;;;;21.50;3.70;;;10.90;99.90;;;;;;5009677;28;20077;-83
2024/01/24 04:08:56;;;;;;;15.55;2.63;;;11.70;99.90;;;;;;5010997;28;20041;-81
2024/01/24 04:11:22;;;;;;;19.42;2.90;;;10.90;99.90;;;;;;4976325;28;20062;-83
2024/01/24 04:13:54;;;;;;;19.80;3.10;;;11.50;99.90;;;;;;4991880;28;20050;-82
2024/01/24 04:16:20;;;;;;;20.33;3.45;;;11.50;99.90;;;;;;5005445;28;20060;-81
2024/01/24 04:18:46;;;;;;;25.38;4.07;;;11.50;99.90;;;;;;5010534;28;20563;-82
2024/01/24 04:21:12;;;;;;;23.58;3.83;;;11.30;99.90;;;;;;5010583;28;20405;-80
2024/01/24 04:23:38;;;;;;;27.42;4.00;;;11.70;99.90;;;;;;4991782;28;20052;-80
2024/01/24 04:26:04;;;;;;;28.30;5.55;;;11.00;99.90;;;;;;4965855;28;20077;-82
2024/01/24 04:28:31;;;;;;;31.90;5.47;;;10.60;99.90;;;;;;5010729;28;20049;-83
2024/01/24 04:30:56;;;;;;;24.13;3.63;;;10.60;99.90;;;;;;4993021;28;20034;-81
2024/01/24 04:33:22;;;;;;;29.90;4.40;;;10.50;99.90;;;;;;4992886;28;20058;-80
2024/01/24 04:35:48;;;;;;;28.20;4.65;;;11.40;99.90;;;;;;4992122;28;20041;-81
2024/01/24 04:38:14;;;;;;;21.85;3.63;;;11.20;99.90;;;;;;4976288;28;20057;-81
2024/01/24 04:40:39;;;;;;;23.38;4.75;;;11.10;99.90;;;;;;5009622;28;20070;-81
2024/01/24 04:43:07;;;;;;;24.55;3.97;;;10.40;99.90;;;;;;5010678;28;20100;-82
2024/01/24 04:45:32;;;;;;;21.45;3.45;;;11.40;99.90;;;;;;4992905;28;20497;-81
2024/01/24 04:47:58;;;;;;;40.05;4.95;;;10.90;99.90;;;;;;5009637;28;20048;-82
2024/01/24 04:50:24;;;;;;;25.52;3.83;;;10.40;99.90;;;;;;5009984;28;20050;-81
2024/01/24 04:52:49;;;;;;;20.17;3.10;;;10.50;99.90;;;;;;5010095;28;20390;-82
2024/01/24 04:55:15;;;;;;;25.10;3.95;;;10.50;99.90;;;;;;4990583;28;20452;-81
2024/01/24 04:57:41;;;;;;;24.58;3.55;;;10.40;99.90;;;;;;5008120;28;20042;-82
2024/01/24 05:00:08;;;;;;;27.40;5.40;;;11.10;99.90;;;;;;5010332;28;20069;-83
2024/01/24 05:02:34;;;;;;;25.52;5.45;;;10.40;99.90;;;;;;4992088;28;20050;-82
2024/01/24 05:05:00;;;;;;;23.05;4.70;;;10.60;99.90;;;;;;4992627;28;20460;-82
2024/01/24 05:07:25;;;;;;;30.52;4.20;;;10.40;99.90;;;;;;4986871;28;20053;-82
2024/01/24 05:09:51;;;;;;;28.83;4.70;;;11.20;99.90;;;;;;5010361;28;20401;-82
2024/01/24 05:12:17;;;;;;;21.38;3.42;;;10.90;99.90;;;;;;4986092;28;20050;-82
2024/01/24 05:14:43;;;;;;;33.92;4.80;;;10.30;99.90;;;;;;4990948;28;20049;-82
2024/01/24 05:17:09;;;;;;;22.70;4.32;;;10.90;99.90;;;;;;5002147;28;20132;-80
2024/01/24 05:19:35;;;;;;;25.27;5.18;;;11.20;99.90;;;;;;5010149;28;20042;-83
2024/01/24 05:22:01;;;;;;;32.70;5.53;;;11.20;99.90;;;;;;5010089;28;20041;-81
2024/01/24 05:24:26;;;;;;;36.03;5.53;;;10.70;99.90;;;;;;5009675;28;20041;-82
2024/01/24 05:26:52;;;;;;;26.50;4.25;;;11.20;99.90;;;;;;5008158;28;20038;-81
2024/01/24 05:29:19;;;;;;;34.45;6.28;;;10.90;99.90;;;;;;5007229;28;20124;-81
2024/01/24 05:31:45;;;;;;;38.72;6.75;;;10.30;99.90;;;;;;5009261;28;20046;-82
2024/01/24 05:34:10;;;;;;;36.17;5.90;;;10.70;99.90;;;;;;5007093;28;20068;-83
2024/01/24 05:36:36;;;;;;;31.33;5.03;;;10.60;99.90;;;;;;5030158;28;20049;-81
2024/01/24 05:39:03;;;;;;;31.90;6.35;;;10.70;99.90;;;;;;4994942;28;20041;-83
2024/01/24 05:41:28;;;;;;;39.30;5.88;;;10.30;99.90;;;;;;5007380;28;20045;-81
2024/01/24 05:43:54;;;;;;;35.90;5.95;;;10.80;99.90;;;;;;5029319;28;20049;-82
2024/01/24 05:46:19;;;;;;;40.03;5.97;;;11.30;99.90;;;;;;5011869;28;20139;-83
2024/01/24 05:48:45;;;;;;;32.28;5.47;;;10.20;99.90;;;;;;5011282;28;20511;-83
2024/01/24 05:51:11;;;;;;;22.55;4.55;;;10.90;99.90;;;;;;5029814;28;20041;-80
2024/01/24 05:53:41;;;;;;;33.67;6.05;;;11.10;99.90;;;;;;5028999;28;20116;-83
2024/01/24 05:56:07;;;;;;;38.30;5.97;;;10.80;99.90;;;;;;5029125;28;20050;-82
2024/01/24 05:58:34;;;;;;;29.80;5.45;;;10.10;99.90;;;;;;5011868;28;20370;-83
2024/01/24 06:00:59;;;;;;;41.50;6.20;;;11.00;99.90;;;;;;5026809;28;20041;-82
2024/01/24 06:03:25;;;;;;;44.80;6.13;;;10.00;99.90;;;;;;5032385;28;20045;-81
2024/01/24 06:05:50;;;;;;;34.05;6.07;;;10.00;99.90;;;;;;5032376;28;20037;-83
2024/01/24 06:08:16;;;;;;;31.65;5.97;;;10.00;99.90;;;;;;5014998;28;20513;-81
2024/01/24 06:10:42;;;;;;;39.45;6.10;;;10.00;99.90;;;;;;5031285;28;20041;-81
2024/01/24 06:13:07;;;;;;;38.92;6.53;;;10.60;99.90;;;;;;5002730;28;20038;-82
2024/01/24 06:15:33;;;;;;;35.85;6.45;;;10.50;99.90;;;;;;4998426;28;20057;-82
2024/01/24 06:17:59;;;;;;;41.70;6.10;;;10.20;99.90;;;;;;5030183;28;20053;-82
2024/01/24 06:20:25;;;;;;;32.92;4.85;;;10.90;99.90;;;;;;5031192;28;20460;-82
2024/01/24 06:22:51;;;;;;;37.33;7.22;;;9.90;99.90;;;;;;5031875;28;20059;-82
2024/01/24 06:25:17;;;;;;;36.13;5.80;;;9.90;99.90;;;;;;5013487;28;20497;-82
2024/01/24 06:27:42;;;;;;;35.92;7.20;;;10.60;99.90;;;;;;5032075;28;20040;-83
2024/01/24 06:30:09;;;;;;;37.08;5.57;;;9.90;99.90;;;;;;5014938;28;20053;-83
2024/01/24 06:32:35;;;;;;;24.67;5.18;;;9.90;99.90;;;;;;5032538;28;20050;-84
2024/01/24 06:35:01;;;;;;;51.28;7.18;;;10.90;99.90;;;;;;5015661;28;20061;-83
2024/01/24 06:37:26;;;;;;;31.58;5.68;;;10.50;99.90;;;;;;5011755;28;20056;-82
2024/01/24 06:39:52;;;;;;;29.20;5.90;;;10.40;99.90;;;;;;5012897;28;20046;-83
2024/01/24 06:42:18;;;;;;;29.58;6.60;;;10.40;99.90;;;;;;4994249;28;20050;-83
2024/01/24 06:44:43;;;;;;;34.30;6.43;;;10.50;99.90;;;;;;4994831;28;20136;-82
2024/01/24 06:47:09;;;;;;;26.48;4.82;;;9.70;99.90;;;;;;5010650;28;20085;-82
2024/01/24 06:49:35;;;;;;;42.17;6.63;;;10.40;99.90;;;;;;4986846;28;20062;-81
2024/01/24 06:52:00;;;;;;;41.58;7.13;;;10.20;99.90;;;;;;5011717;28;20046;-83
2024/01/24 06:54:29;;;;;;;41.13;5.82;;;9.60;99.90;;;;;;5004089;28;20125;-83
2024/01/24 06:56:55;;;;;;;41.47;7.57;;;9.60;99.90;;;;;;4988500;28;20052;-82
2024/01/24 06:59:20;;;;;;;38.35;5.93;;;10.20;99.90;;;;;;5012015;28;20401;-82
2024/01/24 07:01:46;;;;;;;36.67;5.57;;;9.60;99.90;;;;;;5006333;28;20042;-82
2024/01/24 07:04:12;;;;;;;35.20;5.35;;;9.90;99.90;;;;;;4994428;28;20061;-83
2024/01/24 07:06:38;;;;;;;32.15;5.53;;;9.60;99.90;;;;;;4994579;28;20037;-82
2024/01/24 07:09:03;;;;;;;34.53;7.15;;;10.60;99.90;;;;;;5011821;28;20053;-83
2024/01/24 07:11:29;;;;;;;39.85;5.35;;;10.20;99.90;;;;;;4993704;28;20144;-83
2024/01/24 07:13:55;;;;;;;42.15;6.80;;;9.60;99.90;;;;;;5005476;28;20141;-83
2024/01/24 07:16:20;;;;;;;26.83;5.22;;;9.70;99.90;;;;;;4993240;28;20081;-81
2024/01/24 07:18:46;;;;;;;26.83;4.55;;;9.60;99.90;;;;;;5012030;28;20033;-82
2024/01/24 07:21:14;;;;;;;33.63;5.32;;;10.50;99.90;;;;;;5012018;28;20122;-82
2024/01/24 07:23:39;;;;;;;45.22;5.97;;;10.50;99.90;;;;;;4986193;28;20038;-83
2024/01/24 07:26:05;;;;;;;49.30;6.78;;;10.50;99.90;;;;;;5011996;28;20050;-82
2024/01/24 07:28:32;;;;;;;27.58;5.65;;;10.30;99.90;;;;;;5011824;28;20117;-83
2024/01/24 07:30:57;;;;;;;38.60;6.28;;;9.90;99.90;;;;;;4977539;28;20045;-82
2024/01/24 07:33:23;;;;;;;29.65;5.53;;;10.40;99.90;;;;;;5011697;28;20103;-82
2024/01/24 07:35:49;;;;;;;38.85;4.72;;;9.60;99.90;;;;;;5011690;28;20443;-83
2024/01/24 07:38:14;;;;;;;39.95;4.93;;;9.50;99.90;;;;;;4994255;28;20493;-82
2024/01/24 07:40:40;;;;;;;29.67;5.22;;;9.90;99.90;;;;;;5011639;28;20061;-84
2024/01/24 07:43:06;;;;;;;28.95;4.63;;;9.50;99.90;;;;;;5008141;28;20049;-84
2024/01/24 07:45:32;;;;;;;44.78;6.70;;;10.30;99.90;;;;;;5011335;28;20041;-82
2024/01/24 07:47:57;;;;;;;35.85;6.95;;;9.80;99.90;;;;;;4992967;28;20136;-82
2024/01/24 07:50:23;;;;;;;45.85;6.43;;;10.20;99.90;;;;;;4993051;28;20049;-83
2024/01/24 07:52:49;;;;;;;34.88;6.57;;;10.00;99.90;;;;;;4993360;28;20052;-83
2024/01/24 07:55:15;;;;;;;28.67;5.63;;;10.40;99.90;;;;;;5011240;28;20046;-82
2024/01/24 07:57:41;;;;;;;35.50;6.18;;;10.30;99.90;;;;;;5011821;28;20846;-84
2024/01/24 08:00:08;;;;;;;33.40;5.22;;;10.40;99.90;;;;;;4996673;28;20096;-84
2024/01/24 08:02:34;;;;;;;38.90;5.68;;;9.50;99.90;;;;;;4977358;28;20037;-84
2024/01/24 08:05:00;;;;;;;37.22;5.72;;;9.50;99.90;;;;;;5007526;28;20444;-85
2024/01/24 08:07:26;;;;;;;33.45;6.45;;;10.30;99.90;;;;;;4993409;28;20050;-84
2024/01/24 08:09:51;;;;;;;33.88;5.72;;;10.50;99.90;;;;;;4993676;28;20556;-83
2024/01/24 08:12:18;;;;;;;36.30;5.68;;;10.40;99.90;;;;;;4992611;28;20049;-85
2024/01/24 08:14:44;;;;;;;51.13;7.93;;;10.50;99.90;;;;;;5011268;28;20048;-84
2024/01/24 08:17:14;;;;;;;32.00;6.00;;;9.60;99.90;;;;;;5010754;28;20041;-83
2024/01/24 08:19:40;;;;;;;40.28;5.90;;;10.50;99.90;;;;;;5009955;28;20542;-84
2024/01/24 08:22:06;;;;;;;36.22;6.15;;;10.20;99.90;;;;;;4976404;28;20057;-84
2024/01/24 08:24:31;;;;;;;37.20;6.72;;;10.00;99.90;;;;;;5010160;28;20600;-82
2024/01/24 08:26:58;;;;;;;38.78;5.78;;;9.50;99.90;;;;;;5010699;28;20489;-84
2024/01/24 08:29:27;;;;;;;35.20;6.45;;;10.40;99.90;;;;;;4992873;28;20042;-84
2024/01/24 08:31:52;;;;;;;41.58;6.45;;;10.60;99.90;;;;;;5007160;28;20121;-83
2024/01/24 08:34:19;;;;;;;29.85;5.22;;;10.50;99.90;;;;;;4996038;28;20115;-83
2024/01/24 08:36:45;;;;;;;43.08;6.57;;;10.20;99.90;;;;;;5012388;28;20049;-82
2024/01/24 08:39:10;;;;;;;42.10;6.35;;;10.40;99.90;;;;;;5030386;28;20038;-84
2024/01/24 08:41:36;;;;;;;32.90;5.50;;;10.50;99.90;;;;;;5030027;28;20049;-82
2024/01/24 08:44:02;;;;;;;45.85;7.00;;;10.20;99.90;;;;;;5030104;28;20137;-82
2024/01/24 08:46:28;;;;;;;29.13;5.13;;;9.40;99.90;;;;;;4996232;28;20124;-83
2024/01/24 08:48:54;;;;;;;33.45;5.43;;;10.00;99.90;;;;;;5010880;28;20575;-81
2024/01/24 08:51:21;;;;;;;29.50;5.72;;;10.00;99.90;;;;;;5030019;28;20053;-81
2024/01/24 08:53:46;;;;;;;27.50;4.63;;;10.30;99.90;;;;;;5012855;28;20084;-84
2024/01/24 08:56:13;;;;;;;27.08;4.65;;;10.00;99.90;;;;;;5029908;28;20034;-82
2024/01/24 08:58:39;;;;;;;32.40;6.50;;;10.40;99.90;;;;;;5012172;28;20042;-81
2024/01/24 09:01:06;;;;;;;46.38;7.60;;;10.00;99.90;;;;;;5012090;28;20273;-80
2024/01/24 09:03:31;;;;;;;38.72;6.85;;;10.30;99.90;;;;;;5030196;28;20049;-80
2024/01/24 09:05:57;;;;;;;38.53;7.22;;;10.30;99.90;;;;;;5029517;28;20400;-82
2024/01/24 09:08:24;;;;;;;36.05;6.90;;;10.30;99.90;;;;;;5012203;28;20045;-82
2024/01/24 09:10:50;;;;;;;46.17;6.28;;;9.40;99.90;;;;;;5012252;28;20497;-82
2024/01/24 09:13:20;;;;;;;29.27;5.57;;;10.40;99.90;;;;;;5012479;28;20120;-82
2024/01/24 09:15:46;;;;;;;30.27;5.13;;;10.20;99.90;;;;;;5011769;28;20084;-81
2024/01/24 09:18:11;;;;;;;42.50;6.18;;;9.40;99.90;;;;;;5029936;28;20088;-82
2024/01/24 09:20:37;;;;;;;35.45;5.68;;;9.40;99.90;;;;;;5012058;28;20124;-81
2024/01/24 09:23:03;;;;;;;44.53;5.78;;;10.00;99.90;;;;;;5021702;28;20045;-88
2024/01/24 09:25:28;;;;;;;29.98;5.50;;;9.40;99.90;;;;;;5011574;28;20034;-82
2024/01/24 09:27:55;;;;;;;31.15;5.25;;;10.20;99.90;;;;;;5012181;28;20488;-82
2024/01/24 09:30:21;;;;;;;26.00;5.03;;;9.90;99.90;;;;;;5029651;28;20049;-81
2024/01/24 09:32:47;;;;;;;27.67;5.38;;;10.50;99.90;;;;;;4995597;28;20052;-85
2024/01/24 09:35:12;;;;;;;30.63;6.28;;;10.10;99.90;;;;;;5009636;28;20054;-82
2024/01/24 09:37:39;;;;;;;35.22;6.13;;;10.60;99.90;;;;;;4987019;28;20054;-82
2024/01/24 09:40:06;;;;;;;41.03;6.85;;;9.80;99.90;;;;;;4996420;28;20386;-82
2024/01/24 09:42:36;;;;;;;29.52;5.80;;;9.60;99.90;;;;;;4979907;28;20096;-83
2024/01/24 09:45:05;;;;;;;31.95;5.75;;;10.60;99.90;;;;;;5013807;28;20042;-82
2024/01/24 09:47:31;;;;;;;33.88;5.70;;;9.70;99.90;;;;;;5013666;28;20054;-83
2024/01/24 09:49:59;;;;;;;42.38;6.88;;;10.70;99.90;;;;;;4996657;28;20030;-83
2024/01/24 09:52:28;;;;;;;39.63;6.65;;;9.80;99.90;;;;;;4992632;28;20057;-86
2024/01/24 09:54:58;;;;;;;26.80;5.80;;;10.20;99.90;;;;;;4997872;28;20129;-88
2024/01/24 09:57:26;;;;;;;33.85;5.80;;;9.80;99.90;;;;;;4997487;28;20385;-87
2024/01/24 09:59:52;;;;;;;31.88;4.65;;;9.80;99.90;;;;;;5014024;28;20053;-88
2024/01/24 10:02:18;;;;;;;36.53;6.07;;;9.80;99.90;;;;;;5013677;28;20567;-86
2024/01/24 10:04:44;;;;;;;36.38;4.85;;;9.90;99.90;;;;;;5014028;28;20066;-85
2024/01/24 10:07:10;;;;;;;32.42;5.38;;;10.80;99.90;;;;;;4980059;28;20046;-86
2024/01/24 10:09:37;;;;;;;29.63;5.63;;;9.90;99.90;;;;;;4979722;28;20049;-86
2024/01/24 10:12:04;;;;;;;30.25;5.65;;;11.00;99.90;;;;;;4980584;28;20141;-84
2024/01/24 10:14:30;;;;;;;28.35;5.47;;;10.00;99.90;;;;;;4996331;28;20516;-86
2024/01/24 10:16:57;;;;;;;40.05;6.68;;;10.90;99.90;;;;;;4996408;28;20069;-85
2024/01/24 10:19:24;;;;;;;40.08;7.40;;;10.90;99.90;;;;;;5013591;28;20050;-82
2024/01/24 10:21:50;;;;;;;24.98;4.75;;;10.00;99.90;;;;;;4992391;28;20041;-84
2024/01/24 10:24:16;;;;;;;31.33;5.85;;;10.50;99.90;;;;;;5012644;28;20046;-84
2024/01/24 10:26:44;;;;;;;35.58;5.25;;;10.60;99.90;;;;;;4979344;28;20069;-85
2024/01/24 10:29:13;;;;;;;31.80;4.70;;;10.30;99.90;;;;;;5006835;28;20042;-85
2024/01/24 10:31:39;;;;;;;40.95;5.57;;;10.20;99.90;;;;;;5013419;28;20493;-85
2024/01/24 10:34:06;;;;;;;44.15;6.13;;;10.50;99.90;;;;;;5013560;28;20057;-85
2024/01/24 10:36:33;;;;;;;21.17;5.60;;;10.20;99.90;;;;;;4995588;28;20405;-83
2024/01/24 10:39:03;;;;;;;31.60;5.63;;;10.20;99.90;;;;;;5013026;28;20053;-84
2024/01/24 10:41:31;;;;;;;33.90;6.43;;;10.30;99.90;;;;;;4995061;28;20061;-85
2024/01/24 10:44:10;;;;;;;38.53;6.43;;;11.20;99.90;;;;;;5005043;28;20555;-84
2024/01/24 10:46:39;;;;;;;31.45;6.05;;;10.40;99.90;;;;;;5012854;28;20448;-85
2024/01/24 10:49:05;;;;;;;34.33;6.03;;;10.40;99.90;;;;;;5006638;28;20070;-85
2024/01/24 10:51:32;;;;;;;35.55;5.53;;;10.40;99.90;;;;;;4995597;28;20092;-84
2024/01/24 10:53:59;;;;;;;40.58;5.72;;;10.90;99.90;;;;;;5012564;28;20085;-86
2024/01/24 10:56:27;;;;;;;38.15;6.55;;;10.80;99.90;;;;;;4991837;28;20504;-85
2024/01/24 10:58:53;;;;;;;32.40;6.00;;;10.20;99.90;;;;;;4990853;28;20065;-83
2024/01/24 11:01:19;;;;;;;37.00;7.03;;;10.20;99.90;;;;;;4992963;28;20123;-85
2024/01/24 11:03:47;;;;;;;44.70;7.43;;;10.10;99.90;;;;;;4981774;28;20125;-84
2024/01/24 11:06:16;;;;;;;36.67;6.03;;;10.20;99.90;;;;;;4988475;28;20053;-82
2024/01/24 11:08:50;;;;;;;22.95;5.68;;;10.20;99.90;;;;;;4995032;28;20060;-83
2024/01/24 11:11:19;;;;;;;31.60;5.03;;;10.60;99.90;;;;;;4994853;28;20057;-83
2024/01/24 11:13:46;;;;;;;36.47;5.53;;;10.50;99.90;;;;;;4978338;28;20045;-81
2024/01/24 11:16:34;;;;;;;31.70;5.65;;;11.20;99.90;;;;;;5012305;28;20161;-83
2024/01/24 11:19:18;;;;;;;28.85;5.22;;;10.10;99.90;;;;;;4994861;28;20093;-83
2024/01/24 11:21:44;;;;;;;37.53;6.93;;;10.10;99.90;;;;;;5005587;28;20081;-84
2024/01/24 11:24:10;;;;;;;28.45;5.30;;;10.70;99.90;;;;;;5012150;28;20085;-86
2024/01/24 11:26:38;;;;;;;30.20;5.30;;;10.90;99.90;;;;;;5011948;28;20050;-83
2024/01/24 11:29:05;;;;;;;30.30;5.85;;;10.80;99.90;;;;;;4994364;28;20129;-82
2024/01/24 11:31:38;;;;;;;40.63;6.70;;;9.90;99.90;;;;;;5011431;28;20487;-83
2024/01/24 11:34:12;;;;;;;42.20;5.07;;;10.90;99.90;;;;;;5011458;28;20456;-85
2024/01/24 11:36:52;;;;;;;25.50;4.97;;;10.00;99.90;;;;;;5010530;28;20116;-84
2024/01/24 11:39:34;;;;;;;32.83;5.63;;;9.90;99.90;;;;;;5012058;28;20386;-83
2024/01/24 11:42:25;;;;;;;29.15;5.40;;;9.90;99.90;;;;;;5004475;28;20053;-83
2024/01/24 11:44:53;;;;;;;31.20;5.95;;;9.90;99.90;;;;;;5011476;28;20745;-83
2024/01/24 11:47:23;;;;;;;35.22;6.50;;;9.90;99.90;;;;;;5009592;28;20120;-83
2024/01/24 11:49:50;;;;;;;35.90;6.55;;;9.90;99.90;;;;;;4994045;28;20056;-82
2024/01/24 11:52:22;;;;;;;30.83;5.10;;;9.90;99.90;;;;;;5010929;28;20046;-83
2024/01/24 11:54:53;;;;;;;33.42;5.28;;;10.50;99.90;;;;;;4991694;28;20145;-82
2024/01/24 11:57:19;;;;;;;47.67;8.07;;;10.00;99.90;;;;;;4977283;28;20409;-82
2024/01/24 11:59:45;;;;;;;39.65;6.38;;;10.00;99.90;;;;;;4991236;28;20052;-83
2024/01/24 12:02:10;;;;;;;42.78;6.00;;;10.80;99.90;;;;;;4993528;28;20564;-83
2024/01/24 12:04:36;;;;;;;41.00;6.80;;;10.00;99.90;;;;;;4993821;28;20061;-82
2024/01/24 12:07:02;;;;;;;35.08;5.45;;;10.10;99.90;;;;;;5011362;28;20482;-83
2024/01/24 12:09:28;;;;;;;38.65;6.63;;;10.10;99.90;;;;;;5011292;28;20489;-84
2024/01/24 12:11:53;;;;;;;37.42;6.95;;;10.10;99.90;;;;;;5011422;28;20038;-83
2024/01/24 12:14:20;;;;;;;30.70;5.53;;;10.10;99.90;;;;;;5011475;28;20073;-82
2024/01/24 12:16:47;;;;;;;40.88;6.45;;;11.20;99.90;;;;;;4986353;28;20054;-82
2024/01/24 12:19:15;;;;;;;40.20;6.65;;;10.30;99.90;;;;;;5006299;28;20564;-84
2024/01/24 12:21:40;;;;;;;38.63;5.75;;;10.20;99.90;;;;;;5011800;28;20453;-82
2024/01/24 12:24:07;;;;;;;29.92;5.65;;;10.40;99.90;;;;;;4993768;28;20119;-82
2024/01/24 12:26:33;;;;;;;36.20;6.85;;;10.40;99.90;;;;;;5011219;28;20068;-82
2024/01/24 12:29:00;;;;;;;41.60;6.10;;;10.40;99.90;;;;;;5011106;28;20112;-82
2024/01/24 12:31:28;;;;;;;28.50;6.05;;;10.70;99.90;;;;;;5010459;28;20049;-83
2024/01/24 12:33:55;;;;;;;29.88;5.22;;;10.60;99.90;;;;;;4993034;28;20046;-83